Time;durP1;ratioP1;P1;durP2;ratioP2;P2;SDS_P1;SDS_P2;PMS_P1;PMS_P2;Temp;Humidity;BMP_temperature;BMP_pressure;BME280_temperature;BME280_humidity;BME280_pressure;Samples;Min_cycle;Max_cycle;Signal;HPM_P1;HPM_P2
2023/06/08 00:01:35;;;;;;;18.17;10.88;;;11.20;99.90;;;;;;5089512;28;20139;-81
2023/06/08 00:04:05;;;;;;;25.42;10.35;;;11.20;99.90;;;;;;5074676;28;20069;-80
2023/06/08 00:06:33;;;;;;;21.35;10.32;;;11.20;99.90;;;;;;5106404;28;20483;-80
2023/06/08 00:09:04;;;;;;;20.33;10.05;;;11.20;99.90;;;;;;5101226;28;20044;-81
2023/06/08 00:11:31;;;;;;;16.05;9.75;;;11.20;99.90;;;;;;5108457;27;20039;-81
2023/06/08 00:13:57;;;;;;;20.90;10.02;;;11.20;99.90;;;;;;5091394;28;20040;-82
2023/06/08 00:16:24;;;;;;;21.48;10.68;;;11.20;99.90;;;;;;5106035;28;20219;-82
2023/06/08 00:18:54;;;;;;;23.33;10.45;;;11.20;99.90;;;;;;5107955;28;20166;-82
2023/06/08 00:21:22;;;;;;;28.02;10.77;;;11.20;99.90;;;;;;5082926;28;20520;-82
2023/06/08 00:23:48;;;;;;;21.60;10.50;;;11.20;99.90;;;;;;5095067;28;20048;-81
2023/06/08 00:26:14;;;;;;;22.80;10.68;;;11.20;99.90;;;;;;5073194;28;20043;-81
2023/06/08 00:28:40;;;;;;;23.45;11.68;;;11.20;99.90;;;;;;5090769;28;20492;-82
2023/06/08 00:31:05;;;;;;;20.55;10.82;;;11.20;99.90;;;;;;5102773;27;20206;-81
2023/06/08 00:33:31;;;;;;;18.83;9.82;;;11.20;99.90;;;;;;5072289;28;20028;-81
2023/06/08 00:35:58;;;;;;;24.20;10.13;;;11.10;99.90;;;;;;5087604;28;20036;-82
2023/06/08 00:38:24;;;;;;;18.50;9.88;;;11.10;99.90;;;;;;5072417;28;20413;-81
2023/06/08 00:40:50;;;;;;;21.63;9.73;;;11.10;99.90;;;;;;5071605;28;20042;-82
2023/06/08 00:43:15;;;;;;;16.35;10.05;;;11.10;99.90;;;;;;5090119;28;20040;-81
2023/06/08 00:45:41;;;;;;;21.65;10.80;;;11.10;99.90;;;;;;5106030;27;20052;-82
2023/06/08 00:48:07;;;;;;;23.45;10.32;;;11.10;99.90;;;;;;5088492;28;20047;-82
2023/06/08 00:50:33;;;;;;;24.75;10.82;;;11.10;99.90;;;;;;5089545;28;20074;-81
2023/06/08 00:52:59;;;;;;;21.20;10.48;;;11.10;99.90;;;;;;5086356;28;20474;-82
2023/06/08 00:55:27;;;;;;;22.65;10.60;;;11.10;99.90;;;;;;5070753;28;20489;-82
2023/06/08 00:57:53;;;;;;;25.55;10.88;;;11.10;99.90;;;;;;5087205;28;20489;-83
2023/06/08 01:00:20;;;;;;;30.42;11.48;;;11.20;99.90;;;;;;5091765;28;20071;-83
2023/06/08 01:02:47;;;;;;;21.05;10.82;;;11.10;99.90;;;;;;5100874;27;20055;-83
2023/06/08 01:05:16;;;;;;;20.08;10.70;;;11.20;99.90;;;;;;5090970;28;20512;-83
2023/06/08 01:08:10;;;;;;;21.20;10.63;;;11.20;99.90;;;;;;5089217;28;20036;-82
2023/06/08 01:10:54;;;;;;;20.90;11.60;;;11.20;99.90;;;;;;5070295;28;20074;-82
2023/06/08 01:13:26;;;;;;;22.48;10.60;;;11.20;99.90;;;;;;5085227;28;20048;-82
2023/06/08 01:15:58;;;;;;;21.10;10.77;;;11.20;99.90;;;;;;5062595;28;20586;-82
2023/06/08 01:18:32;;;;;;;18.25;9.57;;;11.20;99.90;;;;;;5090335;28;20302;-82
2023/06/08 01:21:24;;;;;;;17.15;9.90;;;11.20;99.90;;;;;;5089177;28;20075;-82
2023/06/08 01:24:13;;;;;;;29.83;10.75;;;10.80;99.90;;;;;;5065703;28;20032;-82
2023/06/08 01:26:44;;;;;;;19.85;9.77;;;11.20;99.90;;;;;;5106289;27;20039;-82
2023/06/08 01:29:11;;;;;;;17.20;9.77;;;11.20;99.90;;;;;;5089380;28;20055;-82
2023/06/08 01:31:37;;;;;;;20.42;9.77;;;11.10;99.90;;;;;;5090314;28;20036;-82
2023/06/08 01:34:05;;;;;;;26.55;10.02;;;11.10;99.90;;;;;;5066941;28;20561;-82
2023/06/08 01:37:12;;;;;;;25.08;9.45;;;11.20;99.90;;;;;;5106280;27;20170;-83
2023/06/08 01:39:55;;;;;;;23.77;8.70;;;11.20;99.90;;;;;;5080566;28;20101;-83
2023/06/08 01:42:23;;;;;;;17.02;8.65;;;11.20;99.90;;;;;;5063983;28;20043;-82
2023/06/08 01:45:14;;;;;;;26.20;9.63;;;11.20;99.90;;;;;;5087993;28;20076;-82
2023/06/08 01:47:51;;;;;;;18.35;8.30;;;11.10;99.90;;;;;;5107834;27;20135;-82
2023/06/08 01:50:19;;;;;;;15.43;8.27;;;11.10;99.90;;;;;;5073459;28;20091;-82
2023/06/08 01:52:45;;;;;;;19.17;9.05;;;11.10;99.90;;;;;;5080628;28;20521;-83
2023/06/08 01:55:18;;;;;;;19.08;8.75;;;11.10;99.90;;;;;;5088156;28;20097;-83
2023/06/08 01:57:44;;;;;;;20.67;8.32;;;11.10;99.90;;;;;;5072164;28;20123;-83
2023/06/08 02:00:12;;;;;;;16.40;8.82;;;11.10;99.90;;;;;;5105043;28;20313;-83
2023/06/08 02:02:38;;;;;;;21.80;9.48;;;11.10;99.90;;;;;;5075722;28;20050;-83
2023/06/08 02:05:11;;;;;;;19.25;8.98;;;11.10;99.90;;;;;;5104463;28;20131;-82
2023/06/08 02:07:40;;;;;;;;;;;11.10;99.90;;;;;;5066298;28;20413;-83
2023/06/08 02:10:07;;;;;;;18.20;10.05;;;11.10;99.90;;;;;;5120787;27;20384;-82
2023/06/08 02:12:33;;;;;;;15.75;9.38;;;11.10;99.90;;;;;;5081886;28;20043;-82
2023/06/08 02:14:59;;;;;;;18.08;9.55;;;11.00;99.90;;;;;;5088242;27;20036;-82
2023/06/08 02:17:29;;;;;;;19.95;10.25;;;11.00;99.90;;;;;;5089231;28;20042;-83
2023/06/08 02:19:55;;;;;;;21.17;9.32;;;11.00;99.90;;;;;;5069745;28;20039;-82
2023/06/08 02:22:21;;;;;;;18.33;9.45;;;11.00;99.90;;;;;;5081291;28;20115;-82
2023/06/08 02:24:50;;;;;;;20.98;10.68;;;11.00;99.90;;;;;;5106234;27;20131;-82
2023/06/08 02:27:16;;;;;;;16.98;10.75;;;11.00;99.90;;;;;;5072707;28;20533;-82
2023/06/08 02:29:42;;;;;;;20.60;10.30;;;11.00;99.90;;;;;;5086985;28;20051;-83
2023/06/08 02:32:08;;;;;;;18.80;10.93;;;11.10;99.90;;;;;;5095671;28;20043;-83
2023/06/08 02:34:38;;;;;;;21.27;10.20;;;11.10;99.90;;;;;;5090270;27;20042;-82
2023/06/08 02:37:04;;;;;;;22.23;11.07;;;11.10;99.90;;;;;;5078480;28;20443;-83
2023/06/08 02:39:31;;;;;;;28.50;11.57;;;11.00;99.90;;;;;;5104860;28;20035;-83
2023/06/08 02:41:56;;;;;;;24.35;11.00;;;11.00;99.90;;;;;;5066501;28;20319;-82
2023/06/08 02:44:22;;;;;;;17.45;10.27;;;11.00;99.90;;;;;;5069459;28;20074;-83
2023/06/08 02:46:48;;;;;;;23.13;11.10;;;11.00;99.90;;;;;;5088008;28;20071;-83
2023/06/08 02:49:13;;;;;;;18.30;11.10;;;11.00;99.90;;;;;;5103071;28;20032;-82
2023/06/08 02:51:39;;;;;;;20.60;11.82;;;11.00;99.90;;;;;;5094064;28;20048;-82
2023/06/08 02:54:05;;;;;;;23.80;10.13;;;11.00;99.90;;;;;;5084853;28;20070;-82
2023/06/08 02:56:31;;;;;;;22.20;11.35;;;11.10;99.90;;;;;;5086036;28;20067;-82
2023/06/08 02:58:57;;;;;;;15.93;9.60;;;11.00;99.90;;;;;;5104592;28;20470;-82
2023/06/08 03:01:23;;;;;;;19.08;10.38;;;11.00;99.90;;;;;;5076686;28;20487;-82
2023/06/08 03:03:53;;;;;;;27.85;12.18;;;11.00;99.90;;;;;;5117502;27;20351;-82
2023/06/08 03:06:19;;;;;;;20.80;11.10;;;11.00;99.90;;;;;;5086512;28;20046;-82
2023/06/08 03:08:53;;;;;;;21.30;9.88;;;11.00;99.90;;;;;;5082603;28;20131;-80
2023/06/08 03:11:22;;;;;;;25.08;10.73;;;11.00;99.90;;;;;;5098122;28;20044;-81
2023/06/08 03:13:48;;;;;;;17.67;10.00;;;11.00;99.90;;;;;;5085953;28;20093;-81
2023/06/08 03:16:15;;;;;;;16.98;9.60;;;11.00;99.90;;;;;;5097264;28;20078;-80
2023/06/08 03:18:41;;;;;;;17.20;9.55;;;11.00;99.90;;;;;;5083136;28;20501;-80
2023/06/08 03:21:12;;;;;;;18.35;9.35;;;10.90;99.90;;;;;;5069525;28;20044;-80
2023/06/08 03:23:38;;;;;;;22.52;10.05;;;11.00;99.90;;;;;;5097489;28;20485;-80
2023/06/08 03:26:04;;;;;;;18.95;9.15;;;10.90;99.90;;;;;;5084413;28;20047;-81
2023/06/08 03:28:30;;;;;;;18.85;9.88;;;10.90;99.90;;;;;;5074148;28;20031;-80
2023/06/08 03:30:56;;;;;;;14.85;8.32;;;10.80;99.90;;;;;;5093602;28;20068;-80
2023/06/08 03:33:22;;;;;;;18.25;9.13;;;10.80;99.90;;;;;;5073632;28;20027;-81
2023/06/08 03:35:48;;;;;;;19.45;8.88;;;10.80;99.90;;;;;;5079137;28;20059;-80
2023/06/08 03:38:14;;;;;;;24.10;10.25;;;10.80;99.90;;;;;;5055479;28;20040;-81
2023/06/08 03:40:40;;;;;;;20.42;9.57;;;10.80;99.90;;;;;;5079655;28;20394;-81
2023/06/08 03:43:05;;;;;;;18.30;9.40;;;10.80;99.90;;;;;;5086691;28;20036;-81
2023/06/08 03:45:31;;;;;;;17.38;9.23;;;10.80;99.90;;;;;;5102265;27;20420;-81
2023/06/08 03:47:57;;;;;;;16.73;9.48;;;10.80;99.90;;;;;;5079937;28;20047;-81
2023/06/08 03:50:22;;;;;;;21.77;9.25;;;10.80;99.90;;;;;;5084585;28;20044;-80
2023/06/08 03:52:48;;;;;;;21.48;10.32;;;10.80;99.90;;;;;;5089481;28;20048;-81
2023/06/08 03:55:16;;;;;;;22.27;10.38;;;10.80;99.90;;;;;;5076617;28;20657;-81
2023/06/08 03:57:43;;;;;;;19.90;10.45;;;10.80;99.90;;;;;;5077729;28;20064;-81
2023/06/08 04:00:12;;;;;;;23.88;10.73;;;10.80;99.90;;;;;;5070329;28;20402;-80
2023/06/08 04:02:40;;;;;;;22.65;10.00;;;10.80;99.90;;;;;;5065400;28;20040;-81
2023/06/08 04:05:06;;;;;;;19.15;9.13;;;10.80;99.90;;;;;;5099370;27;20446;-81
2023/06/08 04:07:34;;;;;;;17.52;9.18;;;10.80;99.90;;;;;;5088002;28;20130;-80
2023/06/08 04:10:01;;;;;;;21.23;9.30;;;10.80;99.90;;;;;;5100247;27;20036;-81
2023/06/08 04:12:27;;;;;;;21.15;10.02;;;10.90;99.90;;;;;;5088152;28;20493;-81
2023/06/08 04:14:52;;;;;;;17.05;9.65;;;10.90;99.90;;;;;;5112695;27;20028;-81
2023/06/08 04:17:18;;;;;;;18.58;9.43;;;10.90;99.90;;;;;;5101835;27;20115;-81
2023/06/08 04:19:44;;;;;;;19.73;8.70;;;11.00;99.90;;;;;;5075198;28;20039;-81
2023/06/08 04:22:10;;;;;;;17.58;10.07;;;11.00;99.90;;;;;;5087982;28;20522;-81
2023/06/08 04:24:38;;;;;;;21.00;10.15;;;11.00;99.90;;;;;;5101827;27;20040;-81
2023/06/08 04:27:05;;;;;;;20.50;9.48;;;11.00;99.90;;;;;;5088503;28;20058;-81
2023/06/08 04:29:31;;;;;;;21.85;10.52;;;11.00;99.90;;;;;;5095785;27;20032;-81
2023/06/08 04:31:57;;;;;;;20.77;10.65;;;11.10;99.90;;;;;;5070280;28;20037;-81
2023/06/08 04:34:23;;;;;;;22.15;10.23;;;11.10;99.90;;;;;;5100841;27;20036;-81
2023/06/08 04:36:49;;;;;;;22.60;10.73;;;11.10;99.90;;;;;;5063183;28;20028;-81
2023/06/08 04:39:15;;;;;;;17.85;9.55;;;11.10;99.90;;;;;;5065267;28;20178;-80
2023/06/08 04:41:44;;;;;;;21.85;11.25;;;11.10;99.90;;;;;;5065425;28;20089;-80
2023/06/08 04:44:13;;;;;;;31.48;11.70;;;11.10;99.90;;;;;;5084068;28;20128;-81
2023/06/08 04:46:41;;;;;;;34.83;11.95;;;11.20;99.90;;;;;;5084144;28;20394;-80
2023/06/08 04:49:08;;;;;;;23.05;11.65;;;11.20;99.90;;;;;;5086702;28;20161;-80
2023/06/08 04:51:39;;;;;;;26.05;11.80;;;11.20;99.90;;;;;;5082946;28;20044;-80
2023/06/08 04:54:05;;;;;;;22.88;11.68;;;11.30;99.90;;;;;;5098309;27;20406;-81
2023/06/08 04:56:33;;;;;;;26.83;12.50;;;11.30;99.90;;;;;;5069029;28;20036;-81
2023/06/08 04:59:02;;;;;;;27.33;12.77;;;11.40;99.90;;;;;;5065402;28;20036;-81
2023/06/08 05:01:28;;;;;;;27.63;12.15;;;11.40;99.90;;;;;;5096214;27;20399;-81
2023/06/08 05:03:53;;;;;;;23.92;12.35;;;11.40;99.90;;;;;;5083267;28;20032;-81
2023/06/08 05:06:20;;;;;;;32.40;12.98;;;11.40;99.90;;;;;;5099253;27;20435;-80
2023/06/08 05:08:46;;;;;;;26.50;12.90;;;11.50;99.90;;;;;;5103266;27;21953;-81
2023/06/08 05:11:12;;;;;;;31.85;13.95;;;11.50;99.90;;;;;;5103274;27;20032;-81
2023/06/08 05:13:38;;;;;;;25.80;13.98;;;11.50;99.90;;;;;;5066904;28;20040;-80
2023/06/08 05:16:04;;;;;;;34.47;14.80;;;11.60;99.90;;;;;;5073729;28;20374;-80
2023/06/08 05:18:29;;;;;;;50.70;16.50;;;11.60;99.90;;;;;;5035018;28;20359;-80
2023/06/08 05:20:55;;;;;;;68.47;16.77;;;11.70;99.90;;;;;;5094344;27;20237;-80
2023/06/08 05:23:21;;;;;;;30.00;14.52;;;11.70;99.90;;;;;;5101776;27;20077;-80
2023/06/08 05:25:47;;;;;;;39.42;14.50;;;11.80;99.90;;;;;;5093998;27;20033;-80
2023/06/08 05:28:13;;;;;;;26.38;15.27;;;11.80;99.90;;;;;;5076111;28;20040;-80
2023/06/08 05:30:38;;;;;;;28.85;14.60;;;11.80;99.90;;;;;;5082048;28;20454;-80
2023/06/08 05:33:04;;;;;;;32.67;13.43;;;11.80;99.90;;;;;;5096887;27;20031;-80
2023/06/08 05:35:30;;;;;;;30.08;13.63;;;11.80;99.90;;;;;;5101171;27;20040;-81
2023/06/08 05:37:56;;;;;;;27.30;13.70;;;11.70;99.90;;;;;;5081835;28;20094;-80
2023/06/08 05:40:24;;;;;;;28.58;15.13;;;11.70;99.90;;;;;;5098631;27;20025;-79
2023/06/08 05:42:50;;;;;;;24.35;12.38;;;11.60;99.90;;;;;;5095243;27;20052;-80
2023/06/08 05:45:16;;;;;;;26.73;13.10;;;11.60;99.90;;;;;;5072031;28;20603;-80
2023/06/08 05:47:42;;;;;;;22.67;11.13;;;11.60;99.90;;;;;;5083874;28;20493;-80
2023/06/08 05:50:08;;;;;;;19.90;11.73;;;11.70;99.90;;;;;;5112321;27;20032;-79
2023/06/08 05:52:34;;;;;;;19.35;12.40;;;11.70;99.90;;;;;;5058138;28;20048;-80
2023/06/08 05:55:03;;;;;;;23.35;11.32;;;11.80;99.90;;;;;;5077875;28;20103;-80
2023/06/08 05:57:28;;;;;;;21.75;11.32;;;11.80;99.90;;;;;;5077111;28;20036;-79
2023/06/08 05:59:54;;;;;;;18.95;10.90;;;11.90;99.90;;;;;;5102539;27;20082;-80
2023/06/08 06:02:20;;;;;;;17.40;10.00;;;11.90;99.90;;;;;;5064338;28;20067;-79
2023/06/08 06:04:45;;;;;;;22.63;9.45;;;12.00;99.90;;;;;;5098754;28;20063;-80
2023/06/08 06:07:11;;;;;;;20.67;9.50;;;12.10;99.90;;;;;;5072763;28;20114;-79
2023/06/08 06:09:37;;;;;;;16.00;8.13;;;12.20;99.90;;;;;;5073872;28;21408;-79
2023/06/08 06:12:03;;;;;;;19.77;8.77;;;12.20;99.90;;;;;;5059889;28;20040;-79
2023/06/08 06:14:37;;;;;;;16.92;8.60;;;12.20;99.90;;;;;;5082157;28;20035;-79
2023/06/08 06:17:04;;;;;;;14.48;7.75;;;12.20;99.90;;;;;;5123738;27;20059;-79
2023/06/08 06:19:33;;;;;;;14.10;8.27;;;12.30;99.90;;;;;;5098518;28;20028;-79
2023/06/08 06:21:58;;;;;;;18.05;7.68;;;12.40;99.90;;;;;;5114350;27;20036;-79
2023/06/08 06:24:24;;;;;;;15.43;7.22;;;12.40;99.90;;;;;;5119327;27;20091;-79
2023/06/08 06:26:50;;;;;;;13.80;7.18;;;12.50;99.90;;;;;;5073157;28;20132;-79
2023/06/08 06:29:15;;;;;;;12.02;7.35;;;12.50;99.90;;;;;;5088347;28;20039;-80
2023/06/08 06:31:41;;;;;;;23.00;8.10;;;12.60;99.90;;;;;;5079503;28;20044;-69
2023/06/08 06:34:07;;;;;;;25.75;8.60;;;12.70;99.90;;;;;;5124131;27;20111;-68
2023/06/08 06:36:32;;;;;;;21.52;8.82;;;12.70;99.90;;;;;;5085436;28;20528;-68
2023/06/08 06:38:58;;;;;;;18.42;7.93;;;12.90;99.90;;;;;;5084745;28;20044;-69
2023/06/08 06:41:25;;;;;;;13.48;7.13;;;12.90;99.90;;;;;;5097021;27;20047;-68
2023/06/08 06:43:50;;;;;;;16.55;8.30;;;13.00;99.90;;;;;;5080578;28;20498;-70
2023/06/08 06:46:19;;;;;;;17.48;7.57;;;13.10;99.90;;;;;;5094468;28;20119;-69
2023/06/08 06:48:45;;;;;;;14.45;7.47;;;13.20;99.90;;;;;;5077114;28;20055;-69
2023/06/08 06:51:11;;;;;;;20.85;7.38;;;13.30;99.90;;;;;;5067374;28;20044;-68
2023/06/08 06:53:37;;;;;;;18.73;7.60;;;13.40;99.90;;;;;;5091842;28;20097;-69
2023/06/08 06:56:03;;;;;;;14.43;7.28;;;13.60;99.90;;;;;;5142688;27;20032;-70
2023/06/08 06:58:29;;;;;;;16.50;8.90;;;13.70;99.90;;;;;;5083008;28;20433;-70
2023/06/08 07:00:55;;;;;;;17.27;7.95;;;13.80;99.90;;;;;;5095584;28;20048;-71
2023/06/08 07:03:21;;;;;;;14.48;7.18;;;13.80;99.90;;;;;;5070338;28;20044;-70
2023/06/08 07:05:49;;;;;;;15.13;7.35;;;13.80;99.90;;;;;;5083439;28;20493;-70
2023/06/08 07:08:15;;;;;;;17.17;8.20;;;13.80;99.90;;;;;;5083130;28;20529;-70
2023/06/08 07:10:40;;;;;;;17.40;8.00;;;14.00;99.90;;;;;;5117298;27;20499;-70
2023/06/08 07:13:06;;;;;;;20.25;8.45;;;14.10;99.90;;;;;;5089038;28;20524;-70
2023/06/08 07:15:32;;;;;;;16.05;7.82;;;14.20;99.90;;;;;;5079459;28;20496;-68
2023/06/08 07:17:57;;;;;;;14.57;7.50;;;14.20;99.90;;;;;;5109843;27;20043;-68
2023/06/08 07:20:23;;;;;;;16.25;8.43;;;14.40;99.90;;;;;;5096584;28;20162;-69
2023/06/08 07:22:49;;;;;;;13.90;8.02;;;14.50;99.90;;;;;;5079701;28;20485;-68
2023/06/08 07:25:15;;;;;;;17.05;8.38;;;14.60;99.90;;;;;;5095800;28;20051;-69
2023/06/08 07:27:41;;;;;;;16.02;8.32;;;14.70;99.90;;;;;;5054304;28;20484;-68
2023/06/08 07:30:07;;;;;;;15.63;7.93;;;14.80;99.90;;;;;;5071929;28;20426;-69
2023/06/08 07:32:33;;;;;;;13.00;7.32;;;14.90;99.90;;;;;;5093973;28;20445;-68
2023/06/08 07:34:59;;;;;;;13.40;8.43;;;15.00;99.90;;;;;;5107747;27;20043;-69
2023/06/08 07:37:25;;;;;;;17.60;8.68;;;15.00;99.90;;;;;;5111987;28;20088;-68
2023/06/08 07:39:51;;;;;;;14.63;8.13;;;15.10;99.90;;;;;;5086647;28;20446;-68
2023/06/08 07:42:16;;;;;;;12.52;7.57;;;15.30;99.90;;;;;;5085058;28;20055;-68
2023/06/08 07:44:42;;;;;;;14.18;7.10;;;15.50;99.90;;;;;;5071687;28;20044;-68
2023/06/08 07:47:08;;;;;;;14.63;7.22;;;15.60;99.90;;;;;;5076623;28;20382;-68
2023/06/08 07:49:33;;;;;;;14.20;7.25;;;15.70;99.90;;;;;;5111652;28;20028;-68
2023/06/08 07:51:59;;;;;;;17.60;8.80;;;16.00;99.90;;;;;;5091193;28;20083;-69
2023/06/08 07:54:25;;;;;;;13.20;7.90;;;16.10;99.90;;;;;;5086919;28;20047;-69
2023/06/08 07:56:51;;;;;;;17.67;6.38;;;16.30;99.90;;;;;;5115609;28;20036;-69
2023/06/08 07:59:16;;;;;;;14.85;6.68;;;16.40;99.90;;;;;;5088064;28;20423;-68
2023/06/08 08:01:42;;;;;;;15.93;6.55;;;16.50;99.90;;;;;;5086836;28;20409;-68
2023/06/08 08:04:09;;;;;;;17.83;6.85;;;16.60;99.90;;;;;;5084011;28;20036;-69
2023/06/08 08:06:34;;;;;;;17.65;6.25;;;16.70;99.90;;;;;;5088171;28;20075;-69
2023/06/08 08:09:00;;;;;;;22.88;6.88;;;16.90;99.90;;;;;;5086224;28;20503;-68
2023/06/08 08:11:27;;;;;;;13.35;6.43;;;17.10;99.90;;;;;;5103909;28;20074;-69
2023/06/08 08:13:55;;;;;;;11.07;6.18;;;17.20;99.90;;;;;;5113832;28;20474;-69
2023/06/08 08:16:20;;;;;;;12.60;5.70;;;17.40;99.90;;;;;;5087217;28;20379;-68
2023/06/08 08:18:46;;;;;;;14.70;5.15;;;17.50;99.90;;;;;;5089521;28;20441;-69
2023/06/08 08:21:12;;;;;;;22.45;6.15;;;17.60;99.90;;;;;;5090666;28;20040;-69
2023/06/08 08:23:38;;;;;;;23.10;6.15;;;17.70;99.90;;;;;;5091964;28;20040;-69
2023/06/08 08:26:04;;;;;;;12.02;5.40;;;17.80;99.90;;;;;;5090770;28;20512;-69
2023/06/08 08:28:29;;;;;;;24.85;6.60;;;17.80;99.90;;;;;;5091778;28;20028;-69
2023/06/08 08:30:56;;;;;;;72.50;9.85;;;17.80;99.90;;;;;;5125729;27;20720;-68
2023/06/08 08:33:22;;;;;;;14.55;5.88;;;17.80;99.90;;;;;;5088191;28;20441;-69
2023/06/08 08:35:47;;;;;;;10.25;4.90;;;17.90;99.90;;;;;;5083992;28;20116;-69
2023/06/08 08:38:13;;;;;;;12.60;5.40;;;18.00;99.90;;;;;;5106782;28;20405;-70
2023/06/08 08:40:42;;;;;;;11.30;4.78;;;18.10;99.90;;;;;;5102686;28;20075;-67
2023/06/08 08:43:12;;;;;;;10.07;5.55;;;18.20;99.90;;;;;;5097507;28;20036;-68
2023/06/08 08:45:42;;;;;;;10.73;4.80;;;18.40;99.90;;;;;;5090896;28;20055;-67
2023/06/08 08:48:12;;;;;;;20.08;5.20;;;18.50;99.90;;;;;;5101248;28;20048;-68
2023/06/08 08:50:39;;;;;;;19.60;6.00;;;18.60;99.90;;;;;;5081552;28;20068;-68
2023/06/08 08:53:06;;;;;;;11.95;5.10;;;18.80;99.90;;;;;;5115027;27;20056;-68
2023/06/08 08:55:33;;;;;;;10.43;4.53;;;19.00;99.90;;;;;;5085232;28;20136;-68
2023/06/08 08:58:05;;;;;;;68.47;7.95;;;19.20;99.90;;;;;;5079200;28;20412;-68
2023/06/08 09:00:32;;;;;;;96.85;10.98;;;19.40;99.90;;;;;;5090605;28;20709;-68
2023/06/08 09:02:58;;;;;;;16.02;5.15;;;19.50;99.90;;;;;;5118268;27;20047;-68
2023/06/08 09:05:23;;;;;;;8.10;4.97;;;19.60;99.90;;;;;;5081420;28;20043;-68
2023/06/08 09:07:54;;;;;;;12.98;5.45;;;19.80;99.90;;;;;;5092811;28;20128;-68
2023/06/08 09:10:25;;;;;;;11.30;3.92;;;19.90;99.90;;;;;;5108815;28;20040;-68
2023/06/08 09:12:53;;;;;;;16.90;5.55;;;19.90;99.90;;;;;;5090337;28;20032;-68
2023/06/08 09:15:34;;;;;;;10.32;4.55;;;19.60;99.90;;;;;;5098915;28;20062;-68
2023/06/08 09:18:17;;;;;;;11.85;6.60;;;19.50;99.90;;;;;;5087180;28;20531;-68
2023/06/08 09:20:43;;;;;;;106.38;11.30;;;19.40;99.90;;;;;;5090185;28;20047;-68
2023/06/08 09:23:21;;;;;;;10.50;4.90;;;19.30;99.90;;;;;;5089652;28;20066;-68
2023/06/08 09:25:47;;;;;;;13.40;5.50;;;19.30;99.90;;;;;;5091450;28;20040;-68
2023/06/08 09:28:28;;;;;;;13.25;4.93;;;19.40;99.90;;;;;;5090275;28;20044;-68
2023/06/08 09:30:57;;;;;;;17.45;5.90;;;19.40;99.90;;;;;;5084594;28;20043;-68
2023/06/08 09:33:32;;;;;;;11.50;4.95;;;19.50;99.90;;;;;;5104276;27;20047;-68
2023/06/08 09:35:58;;;;;;;12.68;5.18;;;19.70;99.90;;;;;;5085028;28;20496;-68
2023/06/08 09:38:28;;;;;;;13.82;6.05;;;20.00;99.90;;;;;;5090362;28;20084;-68
2023/06/08 09:41:22;;;;;;;10.38;5.32;;;20.30;99.90;;;;;;5088392;28;20040;-68
2023/06/08 09:43:50;;;;;;;11.77;5.22;;;20.40;99.90;;;;;;5089817;28;20036;-68
2023/06/08 09:46:41;;;;;;;9.75;4.75;;;20.60;99.90;;;;;;5089040;28;20051;-68
2023/06/08 09:49:07;;;;;;;10.38;4.80;;;20.80;99.50;;;;;;5071821;28;20645;-68
2023/06/08 09:51:37;;;;;;;14.07;4.80;;;21.10;99.50;;;;;;5081689;28;20044;-68
2023/06/08 09:54:07;;;;;;;16.95;5.15;;;21.30;98.50;;;;;;5089406;28;20043;-69
2023/06/08 09:56:37;;;;;;;11.32;5.45;;;21.40;99.60;;;;;;5061085;28;20040;-69
2023/06/08 09:59:08;;;;;;;11.13;4.72;;;21.50;98.50;;;;;;5102976;28;20024;-68
2023/06/08 10:01:42;;;;;;;12.23;4.53;;;21.60;98.20;;;;;;5084890;28;20047;-70
2023/06/08 10:04:48;;;;;;;7.85;4.50;;;21.60;97.20;;;;;;5093739;28;20044;-70
2023/06/08 10:07:18;;;;;;;19.02;5.05;;;21.80;97.00;;;;;;5105081;28;20123;-69
2023/06/08 10:09:48;;;;;;;14.75;4.78;;;21.90;96.80;;;;;;5089557;28;20510;-68
2023/06/08 10:12:14;;;;;;;9.70;5.00;;;22.00;96.70;;;;;;5107621;28;20541;-70
2023/06/08 10:14:40;;;;;;;57.70;6.03;;;22.10;96.40;;;;;;5090206;28;20040;-68
2023/06/08 10:17:07;;;;;;;12.73;5.28;;;22.30;96.70;;;;;;5085280;28;20508;-68
2023/06/08 10:19:35;;;;;;;12.63;5.10;;;22.30;95.80;;;;;;5089321;28;20784;-68
2023/06/08 10:22:01;;;;;;;10.82;4.72;;;22.50;95.80;;;;;;5071503;28;20040;-68
2023/06/08 10:24:29;;;;;;;12.25;5.22;;;22.60;95.90;;;;;;5099379;28;20036;-68
2023/06/08 10:27:10;;;;;;;18.50;5.10;;;22.80;95.50;;;;;;5088571;28;20048;-68
2023/06/08 10:29:36;;;;;;;10.77;5.68;;;23.00;95.20;;;;;;5087510;28;20044;-68
2023/06/08 10:32:10;;;;;;;12.27;4.50;;;23.00;94.90;;;;;;5069080;28;20398;-70
2023/06/08 10:34:39;;;;;;;16.77;4.85;;;23.00;94.50;;;;;;5086302;28;20134;-70
2023/06/08 10:37:05;;;;;;;17.85;4.93;;;23.20;93.90;;;;;;5087994;28;20115;-67
2023/06/08 10:39:46;;;;;;;9.93;4.50;;;23.20;93.90;;;;;;5081740;28;20071;-67
2023/06/08 10:42:20;;;;;;;10.10;5.05;;;23.30;93.70;;;;;;5086332;28;20036;-67
2023/06/08 10:45:00;;;;;;;10.85;4.38;;;23.40;93.20;;;;;;5070627;28;20044;-67
2023/06/08 10:47:31;;;;;;;14.15;5.15;;;23.50;94.00;;;;;;5083291;28;20044;-67
2023/06/08 10:50:01;;;;;;;8.80;4.77;;;23.70;94.20;;;;;;5082924;28;20075;-67
2023/06/08 10:52:29;;;;;;;13.20;5.15;;;23.90;93.90;;;;;;5075567;28;20076;-67
2023/06/08 10:55:11;;;;;;;9.00;4.15;;;24.10;94.20;;;;;;5083739;28;20458;-67
2023/06/08 10:57:52;;;;;;;14.82;4.93;;;24.10;92.00;;;;;;5086835;28;20048;-68
2023/06/08 11:00:30;;;;;;;9.85;4.30;;;24.10;93.00;;;;;;5091056;28;20362;-67
2023/06/08 11:03:00;;;;;;;9.18;4.68;;;24.00;92.60;;;;;;5079763;28;20053;-68
2023/06/08 11:05:30;;;;;;;11.15;4.72;;;24.00;92.70;;;;;;5084739;28;20461;-67
2023/06/08 11:07:56;;;;;;;18.38;4.68;;;24.10;92.50;;;;;;5089531;28;20032;-68
2023/06/08 11:10:23;;;;;;;12.88;4.90;;;24.20;92.90;;;;;;5088348;28;20043;-68
2023/06/08 11:12:49;;;;;;;10.38;4.28;;;24.10;92.60;;;;;;5086074;28;20079;-67
2023/06/08 11:15:15;;;;;;;23.23;5.63;;;24.20;92.70;;;;;;5088181;28;20098;-67
2023/06/08 11:17:45;;;;;;;14.50;5.65;;;24.30;92.60;;;;;;5085326;28;20120;-67
2023/06/08 11:20:13;;;;;;;7.93;4.15;;;24.30;92.60;;;;;;5080075;28;20035;-67
2023/06/08 11:22:39;;;;;;;9.60;4.45;;;24.30;92.50;;;;;;5105698;28;20048;-67
2023/06/08 11:25:08;;;;;;;21.17;5.38;;;24.50;91.90;;;;;;5089891;28;20287;-68
2023/06/08 11:27:42;;;;;;;16.98;5.97;;;24.50;91.60;;;;;;5052675;28;20073;-68
2023/06/08 11:30:08;;;;;;;33.28;5.70;;;24.50;92.10;;;;;;5076843;28;20058;-67
2023/06/08 11:32:37;;;;;;;99.95;9.38;;;24.50;91.10;;;;;;5099244;28;20162;-67
2023/06/08 11:35:04;;;;;;;16.58;5.25;;;24.70;91.60;;;;;;5086640;28;20118;-67
2023/06/08 11:37:33;;;;;;;14.25;4.53;;;24.70;91.30;;;;;;5084254;28;20091;-70
2023/06/08 11:39:59;;;;;;;13.80;5.15;;;24.90;91.20;;;;;;5087535;28;20043;-70
2023/06/08 11:42:25;;;;;;;9.30;4.53;;;25.00;91.00;;;;;;5087130;28;20046;-70
2023/06/08 11:44:50;;;;;;;17.33;5.40;;;24.90;90.20;;;;;;5085543;28;20040;-70
2023/06/08 11:47:18;;;;;;;11.23;4.80;;;25.00;90.70;;;;;;5086256;28;20031;-69
2023/06/08 11:49:54;;;;;;;14.55;5.20;;;25.20;91.00;;;;;;5087500;28;20051;-70
2023/06/08 11:52:23;;;;;;;9.57;4.63;;;25.20;90.00;;;;;;5072147;28;20059;-69
2023/06/08 11:54:53;;;;;;;16.58;5.10;;;25.20;90.20;;;;;;5105275;28;20050;-70
2023/06/08 11:57:21;;;;;;;27.10;5.90;;;25.20;90.20;;;;;;5089706;28;20028;-70
2023/06/08 11:59:47;;;;;;;19.10;5.22;;;25.30;90.40;;;;;;5092200;28;20034;-69
2023/06/08 12:02:13;;;;;;;20.88;5.10;;;25.30;90.20;;;;;;5104166;28;20059;-70
2023/06/08 12:04:39;;;;;;;12.93;4.72;;;25.30;90.30;;;;;;5091186;28;20040;-71
2023/06/08 12:07:10;;;;;;;18.00;5.07;;;25.30;89.60;;;;;;5088183;28;20025;-69
2023/06/08 12:09:46;;;;;;;11.95;4.38;;;25.20;89.30;;;;;;5071022;28;20045;-69
2023/06/08 12:12:12;;;;;;;9.85;4.43;;;25.30;89.40;;;;;;5073321;28;20044;-69
2023/06/08 12:14:45;;;;;;;9.98;4.50;;;25.40;89.60;;;;;;5086109;28;20036;-66
2023/06/08 12:17:15;;;;;;;9.68;4.55;;;25.50;89.00;;;;;;5093308;28;20028;-67
2023/06/08 12:19:47;;;;;;;13.98;5.15;;;25.60;88.90;;;;;;5091253;28;20056;-67
2023/06/08 12:22:13;;;;;;;;;;;25.70;88.30;;;;;;5089961;28;20497;-80
2023/06/08 12:24:38;;;;;;;10.70;4.57;;;25.70;87.00;;;;;;5126113;27;19923;-79
2023/06/08 12:27:07;;;;;;;18.23;5.32;;;25.60;89.10;;;;;;5078125;28;20131;-81
2023/06/08 12:29:34;;;;;;;22.40;5.10;;;25.60;88.70;;;;;;5093845;28;20116;-81
2023/06/08 12:32:00;;;;;;;122.55;13.73;;;25.80;88.80;;;;;;5058848;28;20047;-85
2023/06/08 12:34:30;;;;;;;20.65;5.90;;;25.80;87.50;;;;;;5102801;28;20040;-84
2023/06/08 12:36:56;;;;;;;11.52;4.93;;;25.90;87.10;;;;;;5073294;28;20484;-86
2023/06/08 12:39:21;;;;;;;18.30;5.35;;;25.80;87.60;;;;;;5072783;28;20098;-85
2023/06/08 12:41:47;;;;;;;9.85;4.22;;;25.80;86.80;;;;;;5087956;28;20549;-86